Terminal Aerodrome Forecast
Issued by NWS

Home | Current Version | Previous Version | Text Only | Print | Product List | Glossary On
Versions: 1 2 3 4 5 6 7 8 9 10 11 12 13 14 15 16 17 18 19 20
000
FTUS46 KSGX 080302 AAA
TAFSNA
TAF AMD
KSNA 080302Z 0803/0824 VRB04KT P6SM SCT015
     FM080400 VRB04KT P6SM OVC015
      TEMPO 0812/0816 4SM -DZ BR BKN009 OVC015
     FM082200 21009KT P6SM SCT020=

USA.gov is the U.S. government's official web portal to all federal, state and local government web resources and services.